Time;durP1;ratioP1;P1;durP2;ratioP2;P2;SDS_P1;SDS_P2;PMS_P1;PMS_P2;Temp;Humidity;BMP_temperature;BMP_pressure;BME280_temperature;BME280_humidity;BME280_pressure;Samples;Min_cycle;Max_cycle;Signal;HPM_P1;HPM_P2
2022/06/12 00:00:31;;;;;;;2.47;1.30;;;;;;;12.58;96.85;102153.34;5013414;28;20044;-71
2022/06/12 00:02:59;;;;;;;5.72;2.30;;;;;;;12.50;97.78;102151.38;5048718;28;20033;-72
2022/06/12 00:05:27;;;;;;;5.70;2.00;;;;;;;12.48;97.59;102155.13;5031056;28;20067;-72
2022/06/12 00:07:53;;;;;;;5.13;1.30;;;;;;;12.44;97.38;102151.06;5049481;28;20154;-71
2022/06/12 00:10:19;;;;;;;2.90;1.15;;;;;;;12.45;98.47;102150.91;5049212;28;20148;-72
2022/06/12 00:12:46;;;;;;;4.47;2.20;;;;;;;12.37;98.11;102144.59;5031497;28;20135;-72
2022/06/12 00:15:15;;;;;;;3.03;1.52;;;;;;;12.32;97.94;102137.91;5031121;28;20389;-72
2022/06/12 00:17:43;;;;;;;7.15;2.85;;;;;;;12.36;98.15;102154.34;5048011;28;20037;-72
2022/06/12 00:20:10;;;;;;;3.67;1.52;;;;;;;12.31;97.56;102145.97;5031359;28;20183;-72
2022/06/12 00:22:36;;;;;;;5.95;2.05;;;;;;;12.36;96.91;102151.69;5047840;28;20100;-72
2022/06/12 00:25:02;;;;;;;3.83;1.92;;;;;;;12.40;96.73;102154.94;5031017;28;20126;-72
2022/06/12 00:27:27;;;;;;;3.65;1.35;;;;;;;12.29;96.80;102132.84;5047337;28;20029;-72
2022/06/12 00:29:53;;;;;;;1.98;1.13;;;;;;;12.39;96.96;102147.94;5014681;28;20037;-72
2022/06/12 00:32:18;;;;;;;10.90;2.17;;;;;;;12.33;97.07;102142.22;5049168;28;20056;-72
2022/06/12 00:34:52;;;;;;;6.28;1.85;;;;;;;12.26;97.90;102146.34;5031001;28;20037;-72
2022/06/12 00:37:22;;;;;;;5.00;1.52;;;;;;;12.23;96.67;102149.25;5047646;28;20090;-72
2022/06/12 00:39:49;;;;;;;5.43;1.58;;;;;;;12.17;97.38;102144.44;5048754;28;20029;-71
2022/06/12 00:42:32;;;;;;;3.55;1.38;;;;;;;12.00;98.45;102122.06;5030545;28;20060;-72
2022/06/12 00:45:00;;;;;;;3.92;2.45;;;;;;;12.11;98.35;102134.41;5048373;28;20400;-72
2022/06/12 00:47:27;;;;;;;4.65;1.67;;;;;;;12.03;98.25;102123.63;5046423;28;20021;-72
2022/06/12 00:49:59;;;;;;;3.38;1.83;;;;;;;12.10;98.99;102138.00;5048333;28;20039;-72
2022/06/12 00:52:47;;;;;;;2.13;1.27;;;;;;;12.08;97.92;102140.78;5044949;28;20079;-72
2022/06/12 00:55:24;;;;;;;1.55;1.15;;;;;;;12.06;98.54;102131.28;5028260;28;20025;-72
2022/06/12 00:57:56;;;;;;;3.13;1.80;;;;;;;11.94;98.95;102120.75;5055139;28;20041;-72
2022/06/12 01:00:22;;;;;;;4.85;2.40;;;;;;;11.90;98.58;102126.44;5064495;28;20059;-72
2022/06/12 01:02:48;;;;;;;3.08;1.52;;;;;;;11.77;99.67;102121.28;5068143;28;20036;-72
2022/06/12 01:08:06;;;;;;;7.13;2.42;;;;;;;11.68;100.00;102122.88;5067872;28;20035;-72
2022/06/12 01:10:35;;;;;;;7.25;1.88;;;;;;;11.60;100.00;102119.19;5067596;28;20024;-72
2022/06/12 01:13:09;;;;;;;6.25;1.50;;;;;;;11.56;100.00;102115.13;5066673;28;20162;-72
2022/06/12 01:15:39;;;;;;;3.97;1.75;;;;;;;11.56;99.81;102117.75;5068048;28;20036;-72
2022/06/12 01:18:09;;;;;;;5.45;1.77;;;;;;;11.37;100.00;102092.84;5067583;28;20024;-72
2022/06/12 01:20:43;;;;;;;9.45;1.40;;;;;;;11.50;99.22;102119.13;5067067;28;20031;-72
2022/06/12 01:23:50;;;;;;;1.73;1.20;;;;;;;11.42;99.21;102106.50;5066989;28;20735;-72
2022/06/12 01:26:44;;;;;;;3.92;1.02;;;;;;;11.43;98.93;102108.22;5066519;28;20393;-72
2022/06/12 01:29:38;;;;;;;4.28;1.77;;;;;;;11.27;99.13;102087.44;5060856;28;20035;-72
2022/06/12 01:32:12;;;;;;;3.92;1.02;;;;;;;11.25;99.78;102094.66;5064826;28;20567;-72
2022/06/12 01:34:38;;;;;;;3.63;1.58;;;;;;;11.27;99.59;102108.59;5066844;28;20024;-72
2022/06/12 01:37:13;;;;;;;1.70;1.00;;;;;;;11.17;99.18;102088.31;5066908;28;20074;-72
2022/06/12 01:39:44;;;;;;;1.73;1.33;;;;;;;11.24;99.22;102102.72;5067475;28;20032;-72
2022/06/12 01:42:26;;;;;;;1.25;0.70;;;;;;;11.20;100.00;102096.84;5066922;28;20124;-72
2022/06/12 01:45:08;;;;;;;2.38;1.08;;;;;;;11.11;99.55;102085.22;5067809;28;20082;-72
2022/06/12 01:47:36;;;;;;;4.13;1.05;;;;;;;11.07;100.00;102077.66;5064680;28;20036;-71
2022/06/12 01:50:46;;;;;;;2.65;0.95;;;;;;;11.10;99.99;102087.97;5066344;28;20030;-71
2022/06/12 01:53:35;;;;;;;2.75;0.85;;;;;;;11.05;100.00;102075.13;5005041;28;20033;-72
2022/06/12 01:56:24;;;;;;;11.10;1.45;;;;;;;11.03;100.00;102069.13;5004655;28;20033;-72
2022/06/12 01:59:27;;;;;;;3.15;1.35;;;;;;;11.13;100.00;102079.81;4994215;28;20054;-72
2022/06/12 02:02:04;;;;;;;3.17;1.23;;;;;;;11.08;100.00;102069.63;5006659;28;20040;-72
2022/06/12 02:04:35;;;;;;;16.83;1.58;;;;;;;11.14;100.00;102073.53;4993285;28;20569;-72
2022/06/12 02:07:18;;;;;;;7.90;1.52;;;;;;;11.13;99.88;102079.81;5009430;28;20031;-72
2022/06/12 02:09:52;;;;;;;2.22;0.75;;;;;;;11.08;100.00;102077.53;5009390;28;20036;-72
2022/06/12 02:15:46;;;;;;;6.20;1.98;;;;;;;11.16;100.00;102082.19;5009214;28;20173;-71
2022/06/12 02:18:23;;;;;;;1.10;0.93;;;;;;;11.18;100.00;102082.06;5008452;28;20490;-72
2022/06/12 02:21:11;;;;;;;6.85;1.15;;;;;;;11.22;100.00;102084.34;5008434;28;20037;-72
2022/06/12 02:23:43;;;;;;;2.60;1.23;;;;;;;11.24;100.00;102085.06;5027049;28;20451;-72
2022/06/12 02:26:17;;;;;;;4.47;1.45;;;;;;;11.26;100.00;102084.94;5052585;28;20032;-71
2022/06/12 02:28:49;;;;;;;1.42;0.70;;;;;;;11.25;100.00;102072.69;5068815;28;20055;-71
2022/06/12 02:31:24;;;;;;;5.13;1.80;;;;;;;11.28;100.00;102077.72;5067917;28;20016;-72
2022/06/12 02:33:56;;;;;;;2.38;1.00;;;;;;;11.35;100.00;102083.34;5052996;28;20378;-72
2022/06/12 02:36:27;;;;;;;8.40;1.92;;;;;;;11.31;100.00;102082.75;5070959;28;20016;-72
2022/06/12 02:38:57;;;;;;;3.20;1.42;;;;;;;11.30;100.00;102084.56;5067743;28;20104;-72
2022/06/12 02:41:31;;;;;;;3.50;0.95;;;;;;;11.28;100.00;102083.84;5069917;28;20431;-71
2022/06/12 02:44:01;;;;;;;1.45;1.20;;;;;;;11.24;100.00;102087.69;5071037;28;20054;-71
2022/06/12 02:46:36;;;;;;;2.28;1.08;;;;;;;11.29;100.00;102090.81;5070817;28;20032;-71
2022/06/12 02:49:02;;;;;;;3.03;1.83;;;;;;;11.29;100.00;102088.16;5068898;28;20044;-71
2022/06/12 02:51:41;;;;;;;3.33;0.57;;;;;;;11.27;100.00;102076.88;5070473;28;20194;-71
2022/06/12 02:54:33;;;;;;;0.80;0.75;;;;;;;11.34;100.00;102082.50;5070608;28;20035;-71
2022/06/12 02:57:04;;;;;;;3.33;1.25;;;;;;;11.32;100.00;102074.72;5068445;28;20029;-71
2022/06/12 02:59:51;;;;;;;1.48;0.90;;;;;;;11.30;100.00;102078.41;5070500;28;20082;-71
2022/06/12 03:02:25;;;;;;;3.97;0.57;;;;;;;11.20;100.00;102053.72;5066323;28;20485;-71
2022/06/12 03:04:59;;;;;;;2.70;0.93;;;;;;;11.25;100.00;102072.69;5069235;28;20020;-72
2022/06/12 03:07:25;;;;;;;8.25;1.65;;;;;;;11.25;100.00;102078.78;5086304;28;20044;-72
2022/06/12 03:09:51;;;;;;;3.00;1.15;;;;;;;11.25;100.00;102078.78;5068662;28;20031;-72
2022/06/12 03:12:16;;;;;;;7.00;1.20;;;;;;;11.18;100.00;102076.78;5070759;28;20385;-71
2022/06/12 03:14:42;;;;;;;1.75;1.02;;;;;;;11.13;100.00;102077.16;5069240;28;20028;-72
2022/06/12 03:17:08;;;;;;;1.45;0.75;;;;;;;11.10;100.00;102074.75;5085883;28;20032;-72
2022/06/12 03:19:42;;;;;;;3.25;1.02;;;;;;;11.04;100.00;102065.53;5069774;28;20579;-72
2022/06/12 03:22:20;;;;;;;7.13;2.05;;;;;;;11.11;100.00;102077.28;5069902;28;20028;-72
2022/06/12 03:24:57;;;;;;;1.77;1.15;;;;;;;11.06;100.00;102079.47;5070010;28;20047;-72
2022/06/12 03:27:30;;;;;;;4.13;1.00;;;;;;;10.96;100.00;102062.66;5069628;28;20515;-72
2022/06/12 03:30:23;;;;;;;6.85;2.75;;;;;;;11.04;100.00;102070.81;5067110;28;20151;-72
2022/06/12 03:33:07;;;;;;;2.28;1.20;;;;;;;11.01;100.00;102073.69;5068020;28;20075;-72
2022/06/12 03:35:38;;;;;;;4.10;0.90;;;;;;;10.98;100.00;102084.50;5066917;28;20384;-72
2022/06/12 03:38:16;;;;;;;1.95;1.13;;;;;;;11.01;100.00;102076.31;5085741;28;20568;-71
2022/06/12 03:40:51;;;;;;;3.22;0.93;;;;;;;11.09;100.00;102087.13;5069409;28;20203;-71
2022/06/12 03:43:33;;;;;;;4.72;1.30;;;;;;;11.09;100.00;102079.19;5067337;28;20013;-71
2022/06/12 03:46:05;;;;;;;3.80;1.17;;;;;;;11.03;100.00;102076.22;5069118;28;20559;-71
2022/06/12 03:48:38;;;;;;;5.03;1.33;;;;;;;11.00;100.00;102068.53;5069875;28;20060;-71
2022/06/12 03:51:16;;;;;;;1.92;1.20;;;;;;;11.20;100.00;102096.84;5068686;28;20247;-71
2022/06/12 03:54:11;;;;;;;4.18;2.35;;;;;;;11.18;100.00;102092.66;5068485;28;20100;-72
2022/06/12 03:59:55;;;;;;;3.22;1.58;;;;;;;11.10;100.00;102088.81;5068832;28;20048;-72
2022/06/12 04:02:24;;;;;;;3.53;0.93;;;;;;;11.15;100.00;102092.88;5068555;28;20021;-71
2022/06/12 04:04:51;;;;;;;2.35;1.10;;;;;;;11.20;100.00;102086.25;5069335;28;20449;-71
2022/06/12 04:07:20;;;;;;;2.28;1.05;;;;;;;11.22;100.00;102084.34;5069266;28;20048;-71
2022/06/12 04:09:48;;;;;;;7.32;1.90;;;;;;;11.06;100.00;102053.03;5066671;28;20111;-71
2022/06/12 04:12:28;;;;;;;6.05;1.08;;;;;;;11.28;100.00;102077.72;5069589;28;20496;-72
2022/06/12 04:15:00;;;;;;;3.67;2.30;;;;;;;11.28;100.00;102070.63;5085103;28;20042;-72
2022/06/12 04:17:26;;;;;;;2.60;0.95;;;;;;;11.45;100.00;102079.84;5069995;28;20081;-72
2022/06/12 04:20:00;;;;;;;2.33;1.48;;;;;;;11.55;100.00;102079.91;5066049;28;20056;-72
2022/06/12 04:22:58;;;;;;;8.65;1.50;;;;;;;11.60;100.00;102077.72;5067697;28;20425;-72
2022/06/12 04:25:26;;;;;;;1.85;1.10;;;;;;;11.65;100.00;102082.63;5031894;28;20728;-71
2022/06/12 04:27:52;;;;;;;5.05;1.17;;;;;;;11.56;100.00;102064.88;5084698;28;20044;-71
2022/06/12 04:30:25;;;;;;;1.75;1.27;;;;;;;11.80;100.00;102083.16;5067321;28;20504;-71
2022/06/12 04:33:20;;;;;;;3.83;1.05;;;;;;;11.82;100.00;102076.78;5067264;28;20037;-71
2022/06/12 04:35:55;;;;;;;3.53;0.98;;;;;;;11.85;100.00;102081.81;5036769;28;20439;-72
2022/06/12 04:38:22;;;;;;;0.90;0.68;;;;;;;11.92;100.00;102077.72;5068476;28;20121;-72
2022/06/12 04:40:48;;;;;;;1.42;0.88;;;;;;;12.06;100.00;102088.94;5068036;28;20044;-72
2022/06/12 04:43:14;;;;;;;4.38;1.50;;;;;;;12.21;100.00;102090.28;5067387;28;20361;-72
2022/06/12 04:45:41;;;;;;;4.68;1.05;;;;;;;12.41;100.00;102101.84;5068383;28;20050;-72
2022/06/12 04:48:11;;;;;;;8.68;1.58;;;;;;;12.55;100.00;102096.19;5069842;28;20583;-72
2022/06/12 04:50:37;;;;;;;4.10;1.00;;;;;;;12.69;100.00;102097.63;5066188;28;20036;-72
2022/06/12 04:53:02;;;;;;;0.85;0.70;;;;;;;12.88;100.00;102096.06;5068792;28;20028;-72
2022/06/12 04:55:28;;;;;;;6.07;2.15;;;;;;;13.12;100.00;102083.28;5084579;28;20148;-72
2022/06/12 04:57:53;;;;;;;3.80;0.70;;;;;;;13.39;100.00;102084.47;5067446;28;20606;-72
2022/06/12 05:00:20;;;;;;;4.68;1.42;;;;;;;13.62;100.00;102089.50;5049566;28;20405;-71
2022/06/12 05:02:45;;;;;;;4.25;1.05;;;;;;;13.76;100.00;102083.75;5068597;28;20508;-72
2022/06/12 05:05:11;;;;;;;5.60;1.33;;;;;;;13.83;100.00;102087.56;5067811;28;20032;-72
2022/06/12 05:07:36;;;;;;;5.03;2.03;;;;;;;13.96;100.00;102096.06;5068375;28;20110;-72
2022/06/12 05:10:02;;;;;;;5.85;1.20;;;;;;;14.02;100.00;102097.28;5084890;28;20393;-72
2022/06/12 05:12:27;;;;;;;1.52;0.90;;;;;;;14.02;100.00;102099.94;5068313;28;20051;-72
2022/06/12 05:14:52;;;;;;;3.72;0.80;;;;;;;14.13;99.98;102093.63;5068604;28;20024;-72
2022/06/12 05:17:22;;;;;;;2.90;1.63;;;;;;;14.06;100.00;102092.53;5068537;28;20032;-72
2022/06/12 05:19:48;;;;;;;1.83;0.85;;;;;;;14.05;100.00;102088.22;5068113;28;20017;-72
2022/06/12 05:22:14;;;;;;;2.95;1.92;;;;;;;14.05;100.00;102090.88;5048996;28;20027;-72
2022/06/12 05:24:40;;;;;;;4.43;0.88;;;;;;;14.04;100.00;102094.50;5066753;28;20063;-72
2022/06/12 05:27:09;;;;;;;3.53;1.20;;;;;;;14.10;100.00;102091.28;5068126;28;20539;-72
2022/06/12 05:29:38;;;;;;;2.15;1.23;;;;;;;14.19;100.00;102098.38;5068258;28;20024;-72
2022/06/12 05:32:04;;;;;;;5.70;1.23;;;;;;;14.27;100.00;102098.50;5067068;28;20028;-72
2022/06/12 05:34:30;;;;;;;7.60;1.55;;;;;;;14.40;100.00;102096.38;5065496;28;20033;-71
2022/06/12 05:36:57;;;;;;;2.60;1.17;;;;;;;14.60;100.00;102097.16;5067480;28;20035;-71
2022/06/12 05:39:24;;;;;;;1.98;0.73;;;;;;;14.80;100.00;102103.22;5066680;28;20033;-72
2022/06/12 05:41:50;;;;;;;2.22;1.35;;;;;;;15.10;98.98;102105.75;5067123;28;20514;-72
2022/06/12 05:44:16;;;;;;;5.47;1.27;;;;;;;15.29;97.03;102091.50;5066956;28;20024;-72
2022/06/12 05:46:43;;;;;;;2.58;1.42;;;;;;;15.50;95.48;102075.22;5051339;28;20035;-72
2022/06/12 05:49:09;;;;;;;5.15;2.28;;;;;;;15.75;94.35;102081.66;5067704;28;20416;-72
2022/06/12 05:51:35;;;;;;;3.65;1.70;;;;;;;15.91;93.60;102096.91;5066557;28;20043;-72
2022/06/12 05:54:01;;;;;;;7.60;1.88;;;;;;;15.84;93.33;102097.53;5068065;28;20040;-72
2022/06/12 05:56:29;;;;;;;2.92;1.27;;;;;;;16.04;93.64;102100.00;5067866;28;20060;-72
2022/06/12 05:58:55;;;;;;;6.63;1.10;;;;;;;16.12;92.55;102080.59;5068430;28;20098;-72
2022/06/12 06:01:22;;;;;;;5.80;1.33;;;;;;;16.45;91.19;102106.44;5063318;28;20021;-71
2022/06/12 06:03:49;;;;;;;7.97;1.90;;;;;;;16.54;90.79;102095.81;5065570;28;20404;-72
2022/06/12 06:06:20;;;;;;;7.72;1.67;;;;;;;16.09;91.85;102065.78;5067018;28;20032;-72
2022/06/12 06:08:45;;;;;;;6.60;2.45;;;;;;;16.47;92.20;102103.59;5068098;28;20028;-72
2022/06/12 06:11:11;;;;;;;4.65;1.50;;;;;;;16.75;91.44;102114.91;5067953;28;20020;-71
2022/06/12 06:13:37;;;;;;;9.25;2.03;;;;;;;16.89;91.23;102110.00;5068205;28;20049;-71
2022/06/12 06:16:03;;;;;;;10.73;1.92;;;;;;;16.84;90.77;102105.97;5067094;28;20094;-72
2022/06/12 06:18:29;;;;;;;7.75;2.13;;;;;;;16.77;91.96;102107.59;5067730;28;20035;-72
2022/06/12 06:20:54;;;;;;;7.25;1.95;;;;;;;17.00;91.25;102113.19;5063164;28;20032;-72
2022/06/12 06:23:20;;;;;;;6.05;2.13;;;;;;;17.32;90.37;102105.47;5065889;28;20078;-72
2022/06/12 06:25:45;;;;;;;3.38;1.75;;;;;;;17.54;90.37;102115.50;5066607;28;20052;-72
2022/06/12 06:28:12;;;;;;;7.90;2.10;;;;;;;17.85;88.12;102112.22;5047312;28;20100;-72
2022/06/12 06:30:38;;;;;;;3.58;1.08;;;;;;;18.54;85.12;102115.28;5064026;28;20136;-72
2022/06/12 06:33:04;;;;;;;10.88;3.00;;;;;;;18.61;83.56;102120.78;5065526;28;20465;-72
2022/06/12 06:35:30;;;;;;;10.45;2.00;;;;;;;17.88;84.13;102094.03;5067497;28;20112;-71
2022/06/12 06:37:55;;;;;;;6.13;2.60;;;;;;;18.37;85.13;102114.47;5065613;28;20135;-72
2022/06/12 06:40:24;;;;;;;5.03;2.28;;;;;;;19.01;82.39;102108.25;5066224;28;20346;-72
2022/06/12 06:42:50;;;;;;;12.20;1.88;;;;;;;19.75;80.86;102116.69;5065675;28;20043;-72
2022/06/12 06:48:02;;;;;;;5.85;1.55;;;;;;;21.28;73.85;102120.72;5066961;28;20051;-72
2022/06/12 06:50:30;;;;;;;9.27;1.73;;;;;;;20.38;74.37;102125.28;5069223;28;20020;-72
2022/06/12 06:52:55;;;;;;;5.57;2.00;;;;;;;19.58;77.09;102115.94;5066802;28;20115;-72
2022/06/12 06:55:21;;;;;;;8.75;2.35;;;;;;;19.63;77.54;102121.59;5067303;28;20030;-72
2022/06/12 06:57:49;;;;;;;7.10;1.48;;;;;;;19.96;78.70;102113.31;5062278;28;20045;-72
2022/06/12 07:00:19;;;;;;;2.45;1.40;;;;;;;20.25;76.77;102131.31;5050138;28;20095;-72
2022/06/12 07:02:44;;;;;;;7.37;1.93;;;;;;;20.61;74.86;102127.09;5021023;28;20143;-70
2022/06/12 07:05:10;;;;;;;6.13;1.70;;;;;;;21.23;74.15;102129.34;5028292;28;20399;-72
2022/06/12 07:07:36;;;;;;;5.13;1.20;;;;;;;21.64;72.46;102130.59;5048171;28;20491;-72
2022/06/12 07:10:05;;;;;;;15.25;1.73;;;;;;;21.68;71.29;102121.13;5048523;28;20555;-72
2022/06/12 07:12:31;;;;;;;7.45;1.33;;;;;;;22.27;70.22;102117.28;5048396;28;20056;-72
2022/06/12 07:14:56;;;;;;;6.40;1.30;;;;;;;22.57;68.09;102126.78;5049022;28;20017;-72
2022/06/12 07:17:22;;;;;;;8.65;1.85;;;;;;;22.68;68.76;102133.44;5046899;28;20119;-71
2022/06/12 07:19:47;;;;;;;8.20;1.58;;;;;;;23.22;66.84;102145.31;5030652;28;20025;-71
2022/06/12 07:22:13;;;;;;;10.38;1.73;;;;;;;22.54;67.86;102140.63;5026825;28;20370;-72
2022/06/12 07:24:38;;;;;;;7.00;1.52;;;;;;;22.46;67.09;102140.78;5051119;28;20041;-72
2022/06/12 07:27:04;;;;;;;6.20;1.63;;;;;;;21.62;69.92;102141.53;5050310;28;20435;-71
2022/06/12 07:29:30;;;;;;;6.57;1.50;;;;;;;22.33;70.27;102140.69;5032712;28;20389;-72
2022/06/12 07:31:55;;;;;;;5.32;1.45;;;;;;;23.21;65.40;102140.94;5049353;28;20021;-71
2022/06/12 07:34:20;;;;;;;6.00;1.27;;;;;;;23.16;67.41;102140.72;5031195;28;20025;-72
2022/06/12 07:36:50;;;;;;;5.82;1.65;;;;;;;23.93;64.42;102139.44;5050180;28;20314;-72
2022/06/12 07:39:22;;;;;;;7.25;1.73;;;;;;;23.83;64.90;102141.72;5049761;28;20555;-72
2022/06/12 07:41:49;;;;;;;3.13;1.40;;;;;;;23.97;65.60;102134.44;5048556;28;20043;-72
2022/06/12 07:44:16;;;;;;;5.43;1.48;;;;;;;24.72;61.82;102142.22;5046354;28;20031;-72
2022/06/12 07:46:42;;;;;;;8.32;1.73;;;;;;;25.23;60.18;102138.69;5048255;28;20032;-72
2022/06/12 07:49:08;;;;;;;6.50;1.42;;;;;;;25.37;59.37;102134.03;5049790;28;20025;-72
2022/06/12 07:51:33;;;;;;;6.30;1.38;;;;;;;26.39;58.22;102137.38;5029532;28;20175;-72
2022/06/12 07:53:59;;;;;;;5.43;1.45;;;;;;;26.40;56.88;102141.72;5047656;28;20028;-72
2022/06/12 07:56:25;;;;;;;4.82;0.93;;;;;;;26.71;55.99;102137.25;5047977;28;20119;-72
2022/06/12 07:58:51;;;;;;;5.07;1.15;;;;;;;26.60;56.41;102140.72;5048223;28;20037;-72
2022/06/12 08:01:19;;;;;;;8.02;1.17;;;;;;;24.48;57.99;102138.34;5047566;28;20040;-72
2022/06/12 08:03:45;;;;;;;5.65;1.85;;;;;;;25.19;59.28;102126.63;5047772;28;20029;-72
2022/06/12 08:06:11;;;;;;;4.88;1.17;;;;;;;25.87;56.64;102126.00;5047615;28;20039;-72
2022/06/12 08:08:36;;;;;;;3.72;1.40;;;;;;;26.52;54.18;102144.50;5030228;28;20021;-72
2022/06/12 08:11:02;;;;;;;5.97;1.15;;;;;;;26.78;55.65;102143.41;5048388;28;20411;-72
2022/06/12 08:13:29;;;;;;;1.77;0.80;;;;;;;26.83;55.21;102153.59;5048083;28;20392;-72
2022/06/12 08:15:55;;;;;;;3.60;1.15;;;;;;;26.72;55.80;102111.00;5048281;28;20096;-72
2022/06/12 08:18:21;;;;;;;7.07;1.20;;;;;;;27.96;53.84;102146.56;5048300;28;20115;-72
2022/06/12 08:20:54;;;;;;;5.47;1.48;;;;;;;28.51;51.37;102150.81;5046456;28;20025;-72
2022/06/12 08:23:30;;;;;;;2.55;0.90;;;;;;;27.70;53.08;102142.38;5047162;28;20025;-72
2022/06/12 08:26:18;;;;;;;3.50;1.10;;;;;;;28.03;51.64;102151.88;5047930;28;20494;-72
2022/06/12 08:29:06;;;;;;;3.83;1.05;;;;;;;28.75;51.50;102140.72;5048014;28;20028;-72
2022/06/12 08:31:42;;;;;;;5.43;1.30;;;;;;;28.53;49.93;102154.09;5047011;28;20029;-72
2022/06/12 08:34:11;;;;;;;5.38;1.40;;;;;;;28.56;49.54;102153.63;5047398;28;20017;-72
2022/06/12 08:36:37;;;;;;;6.95;1.30;;;;;;;27.27;52.72;102151.56;5047597;28;20536;-72
2022/06/12 08:39:05;;;;;;;8.20;1.33;;;;;;;25.72;52.86;102144.38;5048185;28;20032;-72
2022/06/12 08:41:42;;;;;;;3.30;0.77;;;;;;;26.97;51.43;102140.69;5045611;28;20541;-72
2022/06/12 08:44:22;;;;;;;2.53;0.68;;;;;;;27.97;50.77;102128.38;5047024;28;20538;-72
2022/06/12 08:46:56;;;;;;;4.33;0.73;;;;;;;28.15;49.44;102144.53;5046726;28;20544;-72
2022/06/12 08:49:35;;;;;;;3.40;0.73;;;;;;;28.14;50.63;102134.75;5048758;28;20263;-69
2022/06/12 08:52:21;;;;;;;2.83;1.30;;;;;;;28.84;47.45;102138.44;5046711;28;20031;-71
2022/06/12 08:54:57;;;;;;;6.45;1.38;;;;;;;29.59;47.34;102134.66;5047717;28;20035;-71
2022/06/12 08:57:34;;;;;;;2.67;0.98;;;;;;;30.67;46.60;102134.34;5044782;28;20571;-71
2022/06/12 09:00:20;;;;;;;2.20;0.95;;;;;;;30.81;44.44;102125.78;5046697;28;20417;-71
2022/06/12 09:02:46;;;;;;;3.45;0.90;;;;;;;29.96;46.50;102133.34;5028300;28;20200;-72
2022/06/12 09:05:17;;;;;;;4.47;0.82;;;;;;;28.81;47.77;102131.59;5046385;28;20021;-72
2022/06/12 09:07:52;;;;;;;2.28;0.50;;;;;;;28.31;49.63;102135.69;5043332;28;20029;-71
2022/06/12 09:10:32;;;;;;;3.20;0.70;;;;;;;27.22;50.94;102138.72;5044525;28;20078;-71
2022/06/12 09:13:59;;;;;;;2.38;0.98;;;;;;;28.15;49.00;102130.97;5046751;28;20535;-71
2022/06/12 09:16:52;;;;;;;3.88;0.93;;;;;;;30.17;47.75;102115.44;4948806;28;20436;-72
2022/06/12 09:19:32;;;;;;;3.17;1.02;;;;;;;31.32;44.78;102110.78;4946068;28;20122;-71
2022/06/12 09:22:28;;;;;;;4.10;0.80;;;;;;;30.64;44.46;102118.53;4946049;28;20049;-71
2022/06/12 09:25:08;;;;;;;4.72;1.05;;;;;;;29.62;45.87;102114.31;4946019;28;20055;-72
2022/06/12 09:27:55;;;;;;;3.25;1.05;;;;;;;29.07;48.34;102119.31;4944463;28;20658;-72
2022/06/12 09:30:33;;;;;;;5.22;0.70;;;;;;;29.72;46.81;102109.91;4948861;28;20359;-71
2022/06/12 09:33:32;;;;;;;2.78;0.93;;;;;;;30.13;47.29;102112.38;4943956;28;20062;-71
2022/06/12 09:36:33;;;;;;;2.67;0.90;;;;;;;30.14;45.44;102114.03;4946023;28;20031;-71
2022/06/12 09:39:20;;;;;;;3.80;1.20;;;;;;;30.84;45.06;102117.13;4947414;28;20039;-72
2022/06/12 09:41:57;;;;;;;2.75;0.82;;;;;;;31.81;45.02;102120.75;4947641;28;20035;-72
2022/06/12 09:44:32;;;;;;;3.38;0.95;;;;;;;31.38;44.21;102111.69;4948396;28;20031;-72
2022/06/12 09:47:29;;;;;;;3.97;0.95;;;;;;;30.76;45.06;102082.94;4986075;28;20474;-72
2022/06/12 09:50:15;;;;;;;3.72;1.10;;;;;;;30.31;45.45;102095.78;5045708;28;20462;-72
2022/06/12 09:52:58;;;;;;;3.05;0.90;;;;;;;29.82;47.13;102098.31;5046763;28;20017;-72
2022/06/12 09:55:39;;;;;;;3.40;1.35;;;;;;;30.38;45.14;102081.13;5044298;28;20136;-72
2022/06/12 09:58:43;;;;;;;4.28;1.20;;;;;;;31.35;44.01;102093.91;5055729;28;20480;-71
2022/06/12 10:01:19;;;;;;;2.92;1.08;;;;;;;30.22;44.37;102097.25;5063506;28;20052;-71
2022/06/12 10:03:50;;;;;;;3.45;0.88;;;;;;;29.15;47.14;102101.81;5067433;28;20074;-71
2022/06/12 10:06:26;;;;;;;2.90;0.90;;;;;;;28.40;48.69;102092.72;5064859;28;20032;-71
2022/06/12 10:08:59;;;;;;;1.92;0.63;;;;;;;27.88;48.79;102098.06;5064086;28;20056;-71
2022/06/12 10:11:41;;;;;;;4.10;1.23;;;;;;;27.46;49.50;102093.53;5066654;28;20063;-70
2022/06/12 10:14:12;;;;;;;3.72;1.10;;;;;;;27.42;51.41;102080.66;5064608;28;20043;-70
2022/06/12 10:17:06;;;;;;;1.30;0.75;;;;;;;29.09;48.30;102081.03;5065707;28;20028;-71
2022/06/12 10:19:57;;;;;;;2.78;1.10;;;;;;;29.26;44.00;102059.31;5065085;28;20040;-71
2022/06/12 10:22:29;;;;;;;2.60;0.57;;;;;;;28.86;45.18;102071.09;5066746;28;20115;-70
2022/06/12 10:24:57;;;;;;;1.27;0.63;;;;;;;30.03;45.69;102074.97;5067030;28;20012;-71
2022/06/12 10:27:24;;;;;;;2.70;1.08;;;;;;;29.24;44.00;102080.50;5070097;28;20142;-70
2022/06/12 10:30:00;;;;;;;4.88;0.60;;;;;;;28.64;45.25;102076.38;5069763;28;20520;-70
2022/06/12 10:32:48;;;;;;;4.63;0.90;;;;;;;29.90;43.23;102078.88;5069740;28;20538;-70
2022/06/12 10:35:16;;;;;;;5.53;0.80;;;;;;;30.66;42.57;102066.47;5068223;28;20059;-71
2022/06/12 10:37:41;;;;;;;1.83;0.68;;;;;;;30.73;40.89;102078.84;5070603;28;20036;-71
2022/06/12 10:40:16;;;;;;;2.90;0.70;;;;;;;31.45;42.55;102084.22;5068316;28;20463;-71
2022/06/12 10:42:49;;;;;;;3.40;1.05;;;;;;;31.00;42.15;102082.69;5064075;28;20111;-71
2022/06/12 10:45:25;;;;;;;1.70;0.50;;;;;;;31.24;42.04;102081.25;5069167;28;20040;-71
2022/06/12 10:47:54;;;;;;;4.05;0.75;;;;;;;32.08;41.26;102081.66;5069450;28;20025;-71
2022/06/12 10:50:35;;;;;;;4.07;0.82;;;;;;;32.08;42.80;102081.66;5069373;28;20504;-71
2022/06/12 10:53:02;;;;;;;3.10;1.08;;;;;;;31.95;41.04;102077.44;5069334;28;20476;-71
2022/06/12 10:55:33;;;;;;;3.88;0.77;;;;;;;32.56;40.54;102074.22;5069240;28;20038;-71
2022/06/12 10:58:28;;;;;;;2.58;0.80;;;;;;;32.99;38.27;102069.34;5058931;28;20045;-71
2022/06/12 11:00:58;;;;;;;1.13;0.70;;;;;;;31.11;40.64;102068.88;5017553;28;20080;-71
2022/06/12 11:03:50;;;;;;;1.77;0.88;;;;;;;30.76;41.23;102055.69;5048100;28;20116;-71
2022/06/12 11:06:20;;;;;;;1.23;0.60;;;;;;;30.93;43.34;102072.00;5047107;28;20092;-70
2022/06/12 11:09:01;;;;;;;1.40;0.60;;;;;;;32.42;41.88;102073.84;5047976;28;20464;-71
2022/06/12 11:11:52;;;;;;;4.22;0.93;;;;;;;33.68;40.65;102072.69;5047177;28;20033;-70
2022/06/12 11:14:38;;;;;;;1.67;0.85;;;;;;;33.93;38.88;102078.09;5049581;28;20052;-70
2022/06/12 11:17:25;;;;;;;1.73;0.65;;;;;;;34.40;37.73;102081.50;5030581;28;20170;-70
2022/06/12 11:20:15;;;;;;;3.97;0.63;;;;;;;34.62;35.89;102067.41;5048032;28;20092;-70
2022/06/12 11:22:40;;;;;;;1.48;0.77;;;;;;;34.49;36.94;102079.81;5047014;28;20025;-71
2022/06/12 11:25:37;;;;;;;2.25;0.95;;;;;;;35.02;37.47;102076.50;5047776;28;20082;-71
2022/06/12 11:28:36;;;;;;;3.03;0.90;;;;;;;35.36;36.87;102072.94;5048822;28;20477;-71
2022/06/12 11:31:35;;;;;;;2.08;0.60;;;;;;;34.85;35.53;102076.91;5049182;28;20100;-71
2022/06/12 11:34:29;;;;;;;3.83;1.00;;;;;;;35.35;35.58;102074.06;5047040;28;20083;-71
2022/06/12 11:37:18;;;;;;;4.07;1.02;;;;;;;34.88;36.01;102076.31;5043402;28;20044;-71
2022/06/12 11:40:03;;;;;;;2.45;0.60;;;;;;;34.41;35.58;102086.72;5011273;28;20044;-71
2022/06/12 11:43:00;;;;;;;2.28;0.82;;;;;;;33.72;36.74;102082.81;5048348;28;20039;-71
2022/06/12 11:45:42;;;;;;;3.28;0.60;;;;;;;33.89;36.30;102079.75;5043128;28;20219;-70
2022/06/12 11:48:31;;;;;;;1.98;0.80;;;;;;;33.00;36.72;102077.31;5043847;28;20147;-70
2022/06/12 11:51:09;;;;;;;2.08;1.15;;;;;;;31.60;38.81;102072.56;5044795;28;20021;-70
2022/06/12 11:53:46;;;;;;;1.35;0.80;;;;;;;32.35;38.14;102065.91;5045956;28;20499;-70
2022/06/12 11:56:20;;;;;;;2.72;0.80;;;;;;;33.01;38.33;102067.19;5044848;28;20061;-71
2022/06/12 11:59:20;;;;;;;4.18;0.70;;;;;;;33.17;37.34;102066.13;5058501;28;20611;-71
2022/06/12 12:02:22;;;;;;;2.83;0.90;;;;;;;33.24;38.54;102065.06;5063164;28;20064;-71
2022/06/12 12:04:54;;;;;;;1.92;0.65;;;;;;;33.28;36.79;102071.63;5065153;28;20063;-70